createdAt,value
2022-08-14T00:02:03.074Z,20.17
2022-08-14T00:04:42.427Z,20.20
2022-08-14T00:07:14.236Z,20.24
2022-08-14T00:10:02.064Z,20.29
2022-08-14T00:12:33.792Z,20.27
2022-08-14T00:15:15.334Z,20.28
2022-08-14T00:17:47.549Z,20.29
2022-08-14T00:20:24.056Z,20.27
2022-08-14T00:22:58.451Z,20.27
2022-08-14T00:25:41.679Z,20.28
2022-08-14T00:28:15.590Z,20.24
2022-08-14T00:30:47.077Z,20.20
2022-08-14T00:33:16.245Z,20.19
2022-08-14T00:36:37.265Z,20.21
2022-08-14T00:38:34.774Z,20.29
2022-08-14T00:41:04.750Z,20.30
2022-08-14T00:43:32.551Z,20.27
2022-08-14T00:46:08.117Z,20.27
2022-08-14T00:48:38.197Z,20.29
2022-08-14T00:51:08.923Z,20.29
2022-08-14T00:53:37.293Z,20.32
2022-08-14T00:56:08.535Z,20.30
2022-08-14T00:58:44.889Z,20.29
2022-08-14T01:01:16.903Z,20.31
2022-08-14T01:03:44.938Z,20.33
2022-08-14T01:06:18.534Z,20.32
2022-08-14T01:08:52.197Z,20.34
2022-08-14T01:11:35.404Z,20.33
2022-08-14T01:14:04.929Z,20.41
2022-08-14T01:16:53.036Z,20.43
2022-08-14T01:19:38.738Z,20.46
2022-08-14T01:22:12.276Z,20.49
2022-08-14T01:24:43.499Z,20.48
2022-08-14T01:27:29.805Z,20.44
2022-08-14T01:30:03.201Z,20.39
2022-08-14T01:32:31.218Z,20.36
2022-08-14T01:35:21.073Z,20.34
2022-08-14T01:37:57.086Z,20.34
2022-08-14T01:40:36.401Z,20.34
2022-08-14T01:43:11.401Z,20.31
2022-08-14T01:45:40.737Z,20.27
2022-08-14T01:48:13.510Z,20.23
2022-08-14T01:50:42.270Z,20.21
2022-08-14T01:53:10.458Z,20.23
2022-08-14T01:55:40.384Z,20.23
2022-08-14T01:58:20.377Z,20.26
2022-08-14T02:00:55.776Z,20.22
2022-08-14T02:03:29.664Z,20.17
2022-08-14T02:05:59.580Z,20.15
2022-08-14T02:08:35.007Z,20.10
2022-08-14T02:11:21.620Z,19.99
2022-08-14T02:14:07.467Z,19.83
2022-08-14T02:16:39.425Z,19.86
2022-08-14T02:19:16.053Z,19.76
2022-08-14T02:21:48.760Z,19.70
2022-08-14T02:24:39.263Z,19.68
2022-08-14T02:28:25.300Z,19.58
2022-08-14T02:29:59.135Z,19.52
2022-08-14T02:32:36.150Z,19.44
2022-08-14T02:35:16.571Z,19.37
2022-08-14T02:37:49.420Z,19.37
2022-08-14T02:40:32.507Z,19.43
2022-08-14T02:43:02.645Z,19.47
2022-08-14T02:45:38.766Z,19.53
2022-08-14T02:49:01.097Z,19.58
2022-08-14T02:51:01.319Z,19.70
2022-08-14T02:53:29.929Z,19.78
2022-08-14T02:56:02.675Z,19.82
2022-08-14T02:58:33.492Z,19.88
2022-08-14T03:01:01.271Z,19.93
2022-08-14T03:03:31.886Z,19.98
2022-08-14T03:06:04.516Z,20.05
2022-08-14T03:08:33.291Z,20.06
2022-08-14T03:11:09.460Z,20.12
2022-08-14T03:13:42.471Z,20.16
2022-08-14T03:16:20.086Z,20.19
2022-08-14T03:18:59.908Z,20.24
2022-08-14T03:21:27.060Z,20.31
2022-08-14T03:24:16.469Z,20.37
2022-08-14T03:26:57.315Z,20.46
2022-08-14T03:29:26.243Z,20.50
2022-08-14T03:31:53.961Z,20.47
2022-08-14T03:34:48.310Z,20.55
2022-08-14T03:37:28.818Z,20.64
2022-08-14T03:39:59.724Z,20.75
2022-08-14T03:42:31.075Z,20.85
2022-08-14T03:45:27.853Z,21.00
2022-08-14T03:47:58.522Z,21.17
2022-08-14T03:50:30.712Z,21.30
2022-08-14T03:53:03.434Z,21.44
2022-08-14T03:55:31.064Z,21.53
2022-08-14T03:58:00.461Z,21.65
2022-08-14T04:00:43.820Z,21.80
2022-08-14T04:03:18.218Z,21.99
2022-08-14T04:05:50.793Z,22.22
2022-08-14T04:08:23.114Z,22.52
2022-08-14T04:11:02.059Z,22.85
2022-08-14T04:13:35.426Z,23.02
2022-08-14T04:16:12.599Z,23.41
2022-08-14T04:18:46.634Z,23.94
2022-08-14T04:21:16.249Z,24.39
2022-08-14T04:23:45.324Z,24.91
2022-08-14T04:26:27.364Z,25.37
2022-08-14T04:29:14.197Z,25.78
2022-08-14T04:33:02.346Z,26.13
2022-08-14T04:34:30.026Z,26.24
2022-08-14T04:37:22.127Z,26.31
2022-08-14T04:40:11.945Z,26.46
2022-08-14T04:42:57.278Z,26.83
2022-08-14T04:45:25.241Z,26.76
2022-08-14T04:48:39.292Z,27.05
2022-08-14T04:51:03.713Z,27.27
2022-08-14T04:53:35.692Z,27.59
2022-08-14T04:56:10.727Z,27.66
2022-08-14T04:59:01.612Z,27.88
2022-08-14T05:01:29.119Z,28.03
2022-08-14T05:04:00.918Z,27.80
2022-08-14T05:06:38.184Z,27.86
2022-08-14T05:09:07.062Z,27.79
2022-08-14T05:11:40.783Z,27.56
2022-08-14T05:14:17.063Z,27.32
2022-08-14T05:16:56.261Z,27.16
2022-08-14T05:19:29.149Z,26.80
2022-08-14T05:22:16.047Z,26.63
2022-08-14T05:24:52.033Z,26.38
2022-08-14T05:27:23.042Z,26.28
2022-08-14T05:29:57.037Z,26.08
2022-08-14T05:32:27.299Z,26.27
2022-08-14T05:34:59.776Z,26.42
2022-08-14T05:37:29.569Z,26.54
2022-08-14T05:39:58.330Z,26.59
2022-08-14T05:42:27.111Z,26.77
2022-08-14T05:44:56.427Z,26.86
2022-08-14T05:47:24.262Z,26.88
2022-08-14T05:49:58.278Z,26.80
2022-08-14T05:52:38.351Z,26.66
2022-08-14T05:55:08.456Z,26.60
2022-08-14T05:57:45.789Z,26.77
2022-08-14T06:00:13.781Z,26.96
2022-08-14T06:02:56.309Z,27.16
2022-08-14T06:05:24.309Z,27.41
2022-08-14T06:07:57.572Z,27.76
2022-08-14T06:10:24.681Z,28.13
2022-08-14T06:12:55.671Z,28.39
2022-08-14T06:15:29.427Z,28.68
2022-08-14T06:17:59.057Z,28.79
2022-08-14T06:20:26.331Z,28.49
2022-08-14T06:22:53.357Z,28.55
2022-08-14T06:25:20.469Z,28.95
2022-08-14T06:27:49.224Z,29.23
2022-08-14T06:30:19.766Z,29.43
2022-08-14T06:32:47.924Z,29.47
2022-08-14T06:35:26.378Z,29.74
2022-08-14T06:37:59.609Z,29.74
2022-08-14T06:40:36.742Z,29.54
2022-08-14T06:43:12.332Z,29.80
2022-08-14T06:45:50.110Z,29.93
2022-08-14T06:48:25.284Z,30.02
2022-08-14T06:50:55.296Z,30.38
2022-08-14T06:53:27.644Z,31.04
2022-08-14T06:56:00.663Z,32.21
2022-08-14T06:58:31.671Z,32.88
2022-08-14T07:01:24.884Z,32.69
2022-08-14T07:04:23.630Z,32.95
2022-08-14T07:06:54.810Z,32.96
2022-08-14T07:09:23.418Z,33.75
2022-08-14T07:11:51.997Z,34.18
2022-08-14T07:14:18.951Z,34.96
2022-08-14T07:16:45.755Z,36.02
2022-08-14T07:19:12.614Z,36.27
2022-08-14T07:21:39.746Z,35.75
2022-08-14T07:24:09.790Z,35.51
2022-08-14T07:26:53.695Z,34.61
2022-08-14T07:29:26.065Z,34.51
2022-08-14T07:31:53.701Z,34.10
2022-08-14T07:34:26.484Z,33.99
2022-08-14T07:37:07.367Z,33.55
2022-08-14T07:39:36.781Z,33.30
2022-08-14T07:42:06.259Z,33.25
2022-08-14T07:44:45.857Z,33.05
2022-08-14T07:47:15.905Z,33.02
2022-08-14T07:50:02.035Z,33.98
2022-08-14T07:52:30.586Z,34.44
2022-08-14T07:54:57.927Z,34.77
2022-08-14T07:57:25.208Z,34.70
2022-08-14T07:59:52.338Z,34.62
2022-08-14T08:02:20.637Z,34.37
2022-08-14T08:04:59.272Z,34.04
2022-08-14T08:07:29.432Z,33.46
2022-08-14T08:09:59.646Z,33.18
2022-08-14T08:12:31.187Z,33.24
2022-08-14T08:15:05.860Z,33.53
2022-08-14T08:17:42.665Z,33.57
2022-08-14T08:20:16.779Z,33.26
2022-08-14T08:22:49.940Z,32.96
2022-08-14T08:25:24.520Z,32.82
2022-08-14T08:28:21.872Z,32.82
2022-08-14T08:31:03.061Z,32.82
2022-08-14T08:33:37.465Z,33.18
2022-08-14T08:36:12.769Z,33.54
2022-08-14T08:39:18.018Z,34.40
2022-08-14T08:41:50.559Z,35.45
2022-08-14T08:44:31.875Z,36.09
2022-08-14T08:47:07.995Z,36.56
2022-08-14T08:49:52.716Z,36.93
2022-08-14T08:52:31.644Z,36.88
2022-08-14T08:55:01.265Z,36.70
2022-08-14T08:57:37.542Z,36.22
2022-08-14T09:00:26.450Z,36.35
2022-08-14T09:03:03.398Z,36.35
2022-08-14T09:05:33.066Z,36.05
2022-08-14T09:08:30.700Z,35.79
2022-08-14T09:11:02.638Z,35.38
2022-08-14T09:13:48.799Z,34.65
2022-08-14T09:16:21.176Z,35.06
2022-08-14T09:18:48.774Z,35.85
2022-08-14T09:21:16.172Z,36.81
2022-08-14T09:24:27.482Z,36.05
2022-08-14T09:26:30.396Z,36.02
2022-08-14T09:29:00.647Z,36.90
2022-08-14T09:31:43.148Z,37.29
2022-08-14T09:34:33.055Z,37.49
2022-08-14T09:37:21.226Z,37.50
2022-08-14T09:40:07.611Z,37.60
2022-08-14T09:42:55.568Z,37.19
2022-08-14T09:45:40.241Z,37.39
2022-08-14T09:48:27.989Z,36.98
2022-08-14T09:54:18.470Z,36.42
2022-08-14T09:56:31.118Z,36.68
2022-08-14T09:59:10.739Z,37.53
2022-08-14T10:01:37.657Z,38.17
2022-08-14T10:04:36.492Z,39.24
2022-08-14T10:07:05.859Z,40.63
2022-08-14T10:09:34.694Z,40.80
2022-08-14T10:12:04.755Z,41.45
2022-08-14T10:14:35.729Z,41.77
2022-08-14T10:17:06.991Z,41.65
2022-08-14T10:19:36.482Z,41.37
2022-08-14T10:23:14.763Z,42.07
2022-08-14T10:24:59.787Z,42.37
2022-08-14T10:27:28.260Z,41.68
2022-08-14T10:30:01.433Z,41.16
2022-08-14T10:32:39.989Z,41.00
2022-08-14T10:35:13.642Z,41.08
2022-08-14T10:37:46.661Z,41.28
2022-08-14T10:40:44.376Z,41.67
2022-08-14T10:43:02.926Z,41.43
2022-08-14T10:45:35.875Z,40.35
2022-08-14T10:48:23.672Z,40.52
2022-08-14T10:51:02.556Z,41.02
2022-08-14T10:53:35.045Z,41.27
2022-08-14T10:56:06.905Z,41.22
2022-08-14T10:58:49.078Z,40.41
2022-08-14T11:01:15.975Z,39.06
2022-08-14T11:03:56.925Z,38.48
2022-08-14T11:06:24.944Z,37.67
2022-08-14T11:08:55.238Z,37.83
2022-08-14T11:11:25.272Z,37.42
2022-08-14T11:13:59.987Z,37.01
2022-08-14T11:16:28.723Z,36.23
2022-08-14T11:18:59.588Z,36.58
2022-08-14T11:21:30.117Z,36.84
2022-08-14T11:23:59.055Z,37.07
2022-08-14T11:26:30.146Z,37.50
2022-08-14T11:29:00.277Z,38.26
2022-08-14T11:31:35.585Z,39.12
2022-08-14T11:34:10.456Z,39.81
2022-08-14T11:37:09.472Z,40.81
2022-08-14T11:39:40.794Z,41.28
2022-08-14T11:42:56.733Z,41.70
2022-08-14T11:45:11.506Z,42.28
2022-08-14T11:48:13.176Z,42.43
2022-08-14T11:50:37.206Z,42.50
2022-08-14T11:53:08.010Z,42.55
2022-08-14T11:55:39.882Z,42.50
2022-08-14T11:58:10.982Z,42.79
2022-08-14T12:00:53.840Z,43.08
2022-08-14T12:03:37.818Z,43.34
2022-08-14T12:06:29.185Z,43.62
2022-08-14T12:09:08.526Z,43.28
2022-08-14T12:11:47.035Z,43.22
2022-08-14T12:14:34.856Z,43.35
2022-08-14T12:17:12.695Z,43.46
2022-08-14T12:20:04.424Z,43.42
2022-08-14T12:22:37.120Z,43.57
2022-08-14T12:25:11.239Z,43.63
2022-08-14T12:27:51.912Z,43.72
2022-08-14T12:30:26.884Z,43.70
2022-08-14T12:33:02.229Z,43.82
2022-08-14T12:35:43.810Z,43.58
2022-08-14T12:38:14.832Z,43.62
2022-08-14T12:40:51.836Z,43.63
2022-08-14T12:43:21.480Z,43.53
2022-08-14T12:45:55.201Z,43.26
2022-08-14T12:48:32.052Z,43.02
2022-08-14T12:50:59.451Z,42.76
2022-08-14T12:53:38.118Z,42.34
2022-08-14T12:56:22.512Z,42.08
2022-08-14T12:58:57.980Z,41.74
2022-08-14T13:02:03.197Z,41.11
2022-08-14T13:04:21.656Z,40.87
2022-08-14T13:06:51.460Z,40.47
2022-08-14T13:09:20.371Z,40.23
2022-08-14T13:11:58.915Z,39.92
2022-08-14T13:14:38.786Z,39.63
2022-08-14T13:17:07.202Z,39.56
2022-08-14T13:19:35.936Z,39.43
2022-08-14T13:22:09.630Z,39.48
2022-08-14T13:24:39.919Z,39.66
2022-08-14T13:27:06.864Z,39.67
2022-08-14T13:29:46.727Z,39.81
2022-08-14T13:32:15.322Z,39.97
2022-08-14T13:34:46.081Z,39.65
2022-08-14T14:27:41.020Z,32.43
2022-08-14T14:30:18.742Z,32.36
2022-08-14T14:33:02.285Z,32.23
2022-08-14T14:35:38.381Z,32.05
2022-08-14T14:38:08.751Z,31.86
2022-08-14T14:40:53.538Z,31.60
2022-08-14T14:43:25.098Z,31.65
2022-08-14T14:45:55.081Z,31.57
2022-08-14T14:48:28.195Z,31.49
2022-08-14T14:50:58.510Z,31.54
2022-08-14T14:53:27.370Z,31.46
2022-08-14T14:56:50.489Z,31.52
2022-08-14T14:58:46.302Z,31.51
2022-08-14T15:01:17.551Z,31.53
2022-08-14T15:03:46.220Z,31.41
2022-08-14T15:06:13.192Z,31.30
2022-08-14T15:08:56.269Z,31.31
2022-08-14T15:11:26.295Z,31.10
2022-08-14T15:13:57.415Z,30.87
2022-08-14T15:16:24.891Z,30.58
2022-08-14T15:18:52.945Z,30.24
2022-08-14T15:21:19.904Z,30.00
2022-08-14T15:23:50.636Z,29.85
2022-08-14T15:26:24.331Z,29.52
2022-08-14T15:29:06.503Z,29.33
2022-08-14T15:31:37.096Z,28.91
2022-08-14T15:34:43.445Z,28.64
2022-08-14T15:37:10.985Z,28.09
2022-08-14T15:39:41.462Z,28.07
2022-08-14T15:42:16.237Z,28.06
2022-08-14T15:44:57.075Z,27.78
2022-08-14T15:47:30.019Z,27.60
2022-08-14T15:50:03.809Z,27.50
2022-08-14T15:52:35.441Z,27.37
2022-08-14T15:55:07.757Z,27.29
2022-08-14T15:57:35.715Z,27.07
2022-08-14T16:00:43.400Z,26.93
2022-08-14T16:03:12.638Z,26.75
2022-08-14T16:05:42.204Z,26.71
2022-08-14T16:08:27.249Z,26.49
2022-08-14T16:10:59.218Z,26.47
2022-08-14T16:13:41.292Z,26.39
2022-08-14T16:16:34.603Z,26.34
2022-08-14T16:19:09.979Z,26.30
2022-08-14T16:21:40.161Z,26.25
2022-08-14T16:24:27.815Z,26.21
2022-08-14T16:27:00.975Z,26.12
2022-08-14T16:29:30.832Z,26.06
2022-08-14T16:32:01.954Z,25.98
2022-08-14T16:34:51.123Z,25.92
2022-08-14T16:37:22.610Z,25.82
2022-08-14T16:39:50.436Z,25.79
2022-08-14T16:43:02.843Z,25.73
2022-08-14T16:45:12.076Z,25.64
2022-08-14T16:47:40.248Z,25.57
2022-08-14T16:50:11.386Z,25.51
2022-08-14T16:52:45.101Z,25.41
2022-08-14T16:55:22.457Z,25.27
2022-08-14T16:57:58.595Z,25.15
2022-08-14T17:00:43.727Z,25.01
2022-08-14T17:03:13.189Z,24.83
2022-08-14T17:05:43.497Z,24.73
2022-08-14T17:08:32.053Z,24.57
2022-08-14T17:11:09.737Z,24.41
2022-08-14T17:13:59.667Z,24.26
2022-08-14T17:16:25.907Z,24.10
2022-08-14T17:19:00.238Z,23.93
2022-08-14T17:21:38.414Z,23.81
2022-08-14T17:24:57.381Z,23.67
2022-08-14T17:27:00.089Z,23.53
2022-08-14T17:29:33.191Z,23.43
2022-08-14T17:32:28.356Z,23.32
2022-08-14T17:35:02.157Z,23.19
2022-08-14T17:37:29.112Z,23.08
2022-08-14T17:40:15.273Z,23.00
2022-08-14T17:42:50.994Z,22.92
2022-08-14T17:45:28.645Z,22.82
2022-08-14T17:48:10.086Z,22.77
2022-08-14T17:51:01.008Z,22.64
2022-08-14T17:53:30.306Z,22.60
2022-08-14T17:56:01.659Z,22.61
2022-08-14T17:58:38.455Z,22.59
2022-08-14T18:01:13.353Z,22.57
2022-08-14T18:03:51.161Z,22.50
2022-08-14T18:06:39.988Z,22.49
2022-08-14T18:09:25.376Z,22.45
2022-08-14T18:11:55.287Z,22.41
2022-08-14T18:14:33.135Z,22.41
2022-08-14T18:17:11.256Z,22.34
2022-08-14T18:19:41.525Z,22.32
2022-08-14T18:22:31.413Z,22.28
2022-08-14T18:24:58.471Z,22.20
2022-08-14T18:27:42.094Z,22.20
2022-08-14T18:30:32.027Z,22.17
2022-08-14T18:32:59.280Z,22.10
2022-08-14T18:35:58.498Z,22.07
2022-08-14T18:38:43.038Z,22.03
2022-08-14T18:41:36.107Z,21.98
2022-08-14T18:44:10.036Z,21.95
2022-08-14T18:47:14.933Z,21.90
2022-08-14T18:49:57.898Z,21.90
2022-08-14T18:52:37.144Z,21.88
2022-08-14T18:55:21.234Z,21.85
2022-08-14T18:57:58.323Z,21.86
2022-08-14T19:00:32.787Z,21.83
2022-08-14T19:03:01.874Z,21.82
2022-08-14T19:05:47.878Z,21.78
2022-08-14T19:08:27.247Z,21.79
2022-08-14T19:11:04.225Z,21.75
2022-08-14T19:13:48.142Z,21.70
2022-08-14T19:16:26.132Z,21.73
2022-08-14T19:18:53.452Z,21.71
2022-08-14T19:21:27.005Z,21.69
2022-08-14T19:24:29.556Z,21.69
2022-08-14T19:27:24.420Z,21.63
2022-08-14T19:30:19.342Z,21.61
2022-08-14T19:32:52.204Z,21.63
2022-08-14T19:35:24.400Z,21.60
2022-08-14T19:37:55.280Z,21.61
2022-08-14T19:40:42.862Z,21.57
2022-08-14T19:43:10.615Z,21.53
2022-08-14T19:45:38.943Z,21.52
2022-08-14T19:48:14.123Z,21.47
2022-08-14T19:50:44.911Z,21.41
2022-08-14T19:53:17.459Z,21.42
2022-08-14T19:55:58.587Z,21.37
2022-08-14T19:58:55.010Z,21.36
2022-08-14T20:01:36.986Z,21.33
2022-08-14T20:04:22.926Z,21.25
2022-08-14T20:06:57.693Z,21.24
2022-08-14T20:11:06.555Z,21.22
2022-08-14T20:12:28.817Z,21.18
2022-08-14T20:15:15.488Z,21.18
2022-08-14T20:17:54.367Z,21.13
2022-08-14T20:20:31.551Z,21.08
2022-08-14T20:23:11.582Z,21.05
2022-08-14T20:25:45.669Z,21.03
2022-08-14T20:28:32.009Z,20.98
2022-08-14T20:31:18.652Z,20.95
2022-08-14T20:34:19.362Z,20.92
2022-08-14T20:37:26.337Z,20.84
2022-08-14T20:39:55.829Z,20.79
2022-08-14T20:42:43.701Z,20.74
2022-08-14T20:45:17.991Z,20.69
2022-08-14T20:47:54.770Z,20.64
2022-08-14T20:50:29.101Z,20.66
2022-08-14T20:53:00.841Z,20.62
2022-08-14T20:55:45.465Z,20.58
2022-08-14T20:58:43.203Z,20.56
2022-08-14T21:01:32.670Z,20.52
2022-08-14T21:04:05.137Z,20.49
2022-08-14T21:07:22.951Z,20.49
2022-08-14T21:10:04.597Z,20.46
2022-08-14T21:12:34.221Z,20.48
2022-08-14T21:15:10.380Z,20.47
2022-08-14T21:17:38.556Z,20.42
2022-08-14T21:20:25.478Z,20.44
2022-08-14T21:22:56.526Z,20.45
2022-08-14T21:25:23.828Z,20.43
2022-08-14T21:27:56.834Z,20.47
2022-08-14T21:30:51.537Z,20.43
2022-08-14T21:33:12.452Z,20.42
2022-08-14T21:35:46.913Z,20.43
2022-08-14T21:38:18.273Z,20.42
2022-08-14T21:40:50.577Z,20.43
2022-08-14T21:43:21.750Z,20.41
2022-08-14T21:45:57.568Z,20.39
2022-08-14T21:48:29.911Z,20.35
2022-08-14T21:51:52.378Z,20.40
2022-08-14T21:53:58.358Z,20.36
2022-08-14T21:56:37.155Z,20.38
2022-08-14T21:59:17.725Z,20.34
2022-08-14T22:02:01.860Z,20.35
2022-08-14T22:04:40.633Z,20.35
2022-08-14T22:07:13.181Z,20.35
2022-08-14T22:09:44.893Z,20.30
2022-08-14T22:12:58.736Z,20.31
2022-08-14T22:15:11.611Z,20.28
2022-08-14T22:17:44.158Z,20.26
2022-08-14T22:20:12.430Z,20.25
2022-08-14T22:22:44.770Z,20.24
2022-08-14T22:25:17.297Z,20.17
2022-08-14T22:27:56.241Z,20.18
2022-08-14T22:30:25.225Z,20.16
2022-08-14T22:32:57.849Z,20.15
2022-08-14T22:35:26.747Z,20.13
2022-08-14T22:38:34.647Z,20.12
2022-08-14T22:40:59.938Z,20.09
2022-08-14T22:43:31.336Z,20.08
2022-08-14T22:46:02.488Z,20.02
2022-08-14T22:48:29.975Z,19.99
2022-08-14T22:50:57.053Z,20.01
2022-08-14T22:53:29.520Z,20.00
2022-08-14T22:55:57.072Z,19.98
2022-08-14T22:58:30.406Z,19.96
2022-08-14T23:01:01.374Z,19.93
2022-08-14T23:03:34.181Z,19.93
2022-08-14T23:06:02.306Z,19.91
2022-08-14T23:08:56.911Z,19.88
2022-08-14T23:11:16.465Z,19.89
2022-08-14T23:13:46.257Z,19.82
2022-08-14T23:16:19.808Z,19.79
2022-08-14T23:18:53.779Z,19.75
2022-08-14T23:21:24.482Z,19.77
2022-08-14T23:23:55.322Z,19.72
2022-08-14T23:26:48.104Z,19.72
2022-08-14T23:29:12.513Z,19.72
2022-08-14T23:31:39.585Z,19.71
2022-08-14T23:34:10.783Z,19.70
2022-08-14T23:36:53.606Z,19.75
2022-08-14T23:39:30.215Z,19.76
2022-08-14T23:42:02.125Z,19.74
2022-08-14T23:44:32.237Z,19.73
2022-08-14T23:47:11.867Z,19.73
2022-08-14T23:50:00.990Z,19.70
2022-08-14T23:53:06.844Z,19.63
2022-08-14T23:55:28.330Z,19.64
2022-08-14T23:57:57.779Z,19.65
